sensor_id;sensor_type;location;lat;lon;timestamp;P1;durP1;ratioP1;P2;durP2;ratioP2
70457;SDS011;57919;56.194;95.716;2022-09-24T00:05:39;6.47;;;1.00;;
70457;SDS011;57919;56.194;95.716;2022-09-24T00:15:43;11.10;;;1.33;;
70457;SDS011;57919;56.194;95.716;2022-09-24T00:25:47;7.73;;;1.00;;
70457;SDS011;57919;56.194;95.716;2022-09-24T00:36:07;6.83;;;1.23;;
70457;SDS011;57919;56.194;95.716;2022-09-24T00:46:14;8.80;;;2.10;;
70457;SDS011;57919;56.194;95.716;2022-09-24T00:56:18;6.10;;;1.87;;
70457;SDS011;57919;56.194;95.716;2022-09-24T01:06:23;4.13;;;1.17;;
70457;SDS011;57919;56.194;95.716;2022-09-24T01:37:22;5.45;;;0.77;;
70457;SDS011;57919;56.194;95.716;2022-09-24T01:47:34;6.87;;;1.70;;
70457;SDS011;57919;56.194;95.716;2022-09-24T01:57:44;5.07;;;1.10;;
70457;SDS011;57919;56.194;95.716;2022-09-24T02:07:55;6.60;;;1.20;;
70457;SDS011;57919;56.194;95.716;2022-09-24T02:18:08;11.17;;;1.70;;
70457;SDS011;57919;56.194;95.716;2022-09-24T02:28:12;5.65;;;1.17;;
70457;SDS011;57919;56.194;95.716;2022-09-24T02:38:16;7.10;;;0.83;;
70457;SDS011;57919;56.194;95.716;2022-09-24T02:48:20;6.13;;;0.97;;
70457;SDS011;57919;56.194;95.716;2022-09-24T02:58:22;5.20;;;1.00;;
70457;SDS011;57919;56.194;95.716;2022-09-24T03:08:24;9.17;;;1.40;;
70457;SDS011;57919;56.194;95.716;2022-09-24T03:18:26;5.72;;;1.17;;
70457;SDS011;57919;56.194;95.716;2022-09-24T03:28:29;17.03;;;3.23;;
70457;SDS011;57919;56.194;95.716;2022-09-24T03:38:31;10.47;;;2.60;;
70457;SDS011;57919;56.194;95.716;2022-09-24T03:48:36;8.97;;;2.77;;
70457;SDS011;57919;56.194;95.716;2022-09-24T03:58:40;5.47;;;1.70;;
70457;SDS011;57919;56.194;95.716;2022-09-24T04:08:44;4.43;;;0.52;;
70457;SDS011;57919;56.194;95.716;2022-09-24T04:18:46;4.47;;;0.87;;
70457;SDS011;57919;56.194;95.716;2022-09-24T04:28:49;3.00;;;0.67;;
70457;SDS011;57919;56.194;95.716;2022-09-24T04:38:51;4.70;;;1.30;;
70457;SDS011;57919;56.194;95.716;2022-09-24T04:48:53;3.67;;;1.03;;
70457;SDS011;57919;56.194;95.716;2022-09-24T04:58:55;6.65;;;0.93;;
70457;SDS011;57919;56.194;95.716;2022-09-24T05:08:58;16.30;;;1.47;;
70457;SDS011;57919;56.194;95.716;2022-09-24T05:19:00;2.40;;;0.57;;
70457;SDS011;57919;56.194;95.716;2022-09-24T05:29:04;9.07;;;0.60;;
70457;SDS011;57919;56.194;95.716;2022-09-24T05:39:06;5.40;;;0.43;;
70457;SDS011;57919;56.194;95.716;2022-09-24T05:49:09;4.35;;;0.40;;
70457;SDS011;57919;56.194;95.716;2022-09-24T05:59:11;4.23;;;0.80;;
70457;SDS011;57919;56.194;95.716;2022-09-24T06:09:13;6.17;;;1.67;;
70457;SDS011;57919;56.194;95.716;2022-09-24T06:19:15;4.80;;;1.13;;
70457;SDS011;57919;56.194;95.716;2022-09-24T06:29:17;6.07;;;1.40;;
70457;SDS011;57919;56.194;95.716;2022-09-24T06:39:21;6.40;;;1.30;;
70457;SDS011;57919;56.194;95.716;2022-09-24T06:49:23;5.40;;;1.53;;
70457;SDS011;57919;56.194;95.716;2022-09-24T06:59:25;10.03;;;2.30;;
70457;SDS011;57919;56.194;95.716;2022-09-24T07:09:27;5.37;;;0.97;;
70457;SDS011;57919;56.194;95.716;2022-09-24T07:19:29;13.70;;;4.43;;
70457;SDS011;57919;56.194;95.716;2022-09-24T07:29:31;6.25;;;1.13;;
70457;SDS011;57919;56.194;95.716;2022-09-24T07:39:33;11.70;;;1.00;;
70457;SDS011;57919;56.194;95.716;2022-09-24T07:49:35;3.33;;;0.90;;
70457;SDS011;57919;56.194;95.716;2022-09-24T07:59:39;6.03;;;1.80;;
70457;SDS011;57919;56.194;95.716;2022-09-24T08:09:41;13.47;;;4.07;;
70457;SDS011;57919;56.194;95.716;2022-09-24T08:19:43;15.65;;;4.55;;
70457;SDS011;57919;56.194;95.716;2022-09-24T08:29:47;5.87;;;1.67;;
70457;SDS011;57919;56.194;95.716;2022-09-24T08:39:48;11.00;;;4.50;;
70457;SDS011;57919;56.194;95.716;2022-09-24T08:49:55;6.57;;;2.20;;
70457;SDS011;57919;56.194;95.716;2022-09-24T09:00:13;20.90;;;11.13;;
70457;SDS011;57919;56.194;95.716;2022-09-24T09:10:17;25.42;;;9.57;;
70457;SDS011;57919;56.194;95.716;2022-09-24T09:20:30;12.57;;;5.87;;
70457;SDS011;57919;56.194;95.716;2022-09-24T09:30:38;51.57;;;29.17;;
70457;SDS011;57919;56.194;95.716;2022-09-24T09:51:25;6.20;;;2.37;;
70457;SDS011;57919;56.194;95.716;2022-09-24T10:01:31;26.17;;;15.43;;
70457;SDS011;57919;56.194;95.716;2022-09-24T10:11:34;14.60;;;5.43;;
70457;SDS011;57919;56.194;95.716;2022-09-24T10:21:36;291.03;;;65.63;;
70457;SDS011;57919;56.194;95.716;2022-09-24T10:31:38;46.23;;;22.93;;
70457;SDS011;57919;56.194;95.716;2022-09-24T10:41:45;43.83;;;24.43;;
70457;SDS011;57919;56.194;95.716;2022-09-24T10:51:59;45.33;;;24.27;;
70457;SDS011;57919;56.194;95.716;2022-09-24T11:02:39;21.03;;;8.17;;
70457;SDS011;57919;56.194;95.716;2022-09-24T11:54:36;150.73;;;59.33;;
70457;SDS011;57919;56.194;95.716;2022-09-24T12:04:59;105.63;;;41.83;;
70457;SDS011;57919;56.194;95.716;2022-09-24T12:15:15;113.93;;;46.80;;
70457;SDS011;57919;56.194;95.716;2022-09-24T12:25:28;178.80;;;73.53;;
70457;SDS011;57919;56.194;95.716;2022-09-24T12:45:41;173.50;;;80.47;;
70457;SDS011;57919;56.194;95.716;2022-09-24T12:55:44;193.57;;;95.87;;
70457;SDS011;57919;56.194;95.716;2022-09-24T13:05:47;247.70;;;124.50;;
70457;SDS011;57919;56.194;95.716;2022-09-24T13:15:57;301.07;;;147.40;;
70457;SDS011;57919;56.194;95.716;2022-09-24T13:26:08;278.17;;;127.10;;
70457;SDS011;57919;56.194;95.716;2022-09-24T13:46:23;76.40;;;31.67;;
70457;SDS011;57919;56.194;95.716;2022-09-24T13:56:28;71.60;;;33.77;;
70457;SDS011;57919;56.194;95.716;2022-09-24T14:06:35;304.23;;;108.47;;
70457;SDS011;57919;56.194;95.716;2022-09-24T14:16:39;85.35;;;37.97;;
70457;SDS011;57919;56.194;95.716;2022-09-24T14:37:04;143.67;;;67.77;;
70457;SDS011;57919;56.194;95.716;2022-09-24T14:47:31;120.23;;;54.63;;
70457;SDS011;57919;56.194;95.716;2022-09-24T14:57:35;119.77;;;51.90;;
70457;SDS011;57919;56.194;95.716;2022-09-24T15:07:38;117.53;;;51.00;;
70457;SDS011;57919;56.194;95.716;2022-09-24T15:17:40;72.80;;;32.30;;
70457;SDS011;57919;56.194;95.716;2022-09-24T15:27:43;90.67;;;39.77;;
70457;SDS011;57919;56.194;95.716;2022-09-24T15:37:45;74.25;;;34.38;;
70457;SDS011;57919;56.194;95.716;2022-09-24T15:47:50;74.27;;;36.70;;
70457;SDS011;57919;56.194;95.716;2022-09-24T15:57:53;52.92;;;22.83;;
70457;SDS011;57919;56.194;95.716;2022-09-24T16:07:55;56.43;;;23.90;;
70457;SDS011;57919;56.194;95.716;2022-09-24T16:17:58;57.13;;;21.53;;
70457;SDS011;57919;56.194;95.716;2022-09-24T16:28:01;43.03;;;16.90;;
70457;SDS011;57919;56.194;95.716;2022-09-24T16:38:03;42.33;;;16.33;;
70457;SDS011;57919;56.194;95.716;2022-09-24T16:48:05;13.20;;;5.05;;
70457;SDS011;57919;56.194;95.716;2022-09-24T16:58:07;23.10;;;9.00;;
70457;SDS011;57919;56.194;95.716;2022-09-24T17:08:09;20.03;;;6.10;;
70457;SDS011;57919;56.194;95.716;2022-09-24T17:18:11;32.13;;;10.10;;
70457;SDS011;57919;56.194;95.716;2022-09-24T17:28:14;8.47;;;2.57;;
70457;SDS011;57919;56.194;95.716;2022-09-24T17:38:15;11.60;;;2.87;;
70457;SDS011;57919;56.194;95.716;2022-09-24T17:48:18;8.25;;;2.20;;
70457;SDS011;57919;56.194;95.716;2022-09-24T17:58:20;10.53;;;2.53;;
70457;SDS011;57919;56.194;95.716;2022-09-24T18:08:22;10.70;;;3.00;;
70457;SDS011;57919;56.194;95.716;2022-09-24T18:18:24;7.00;;;2.30;;
70457;SDS011;57919;56.194;95.716;2022-09-24T18:28:26;6.57;;;1.60;;
70457;SDS011;57919;56.194;95.716;2022-09-24T18:38:28;4.32;;;1.00;;
70457;SDS011;57919;56.194;95.716;2022-09-24T18:48:32;9.30;;;2.03;;
70457;SDS011;57919;56.194;95.716;2022-09-24T18:58:34;9.70;;;2.37;;
70457;SDS011;57919;56.194;95.716;2022-09-24T19:08:36;4.95;;;1.73;;
70457;SDS011;57919;56.194;95.716;2022-09-24T19:18:38;6.30;;;1.30;;
70457;SDS011;57919;56.194;95.716;2022-09-24T19:28:41;6.90;;;1.70;;
70457;SDS011;57919;56.194;95.716;2022-09-24T19:38:44;8.47;;;2.50;;
70457;SDS011;57919;56.194;95.716;2022-09-24T19:48:47;5.47;;;1.67;;
70457;SDS011;57919;56.194;95.716;2022-09-24T19:58:54;12.45;;;4.40;;
70457;SDS011;57919;56.194;95.716;2022-09-24T20:08:57;8.00;;;2.30;;
70457;SDS011;57919;56.194;95.716;2022-09-24T20:19:00;4.97;;;1.27;;
70457;SDS011;57919;56.194;95.716;2022-09-24T20:29:04;4.68;;;1.20;;
70457;SDS011;57919;56.194;95.716;2022-09-24T20:39:09;9.00;;;1.70;;
70457;SDS011;57919;56.194;95.716;2022-09-24T20:49:15;4.10;;;0.90;;
70457;SDS011;57919;56.194;95.716;2022-09-24T20:59:23;3.93;;;0.90;;
70457;SDS011;57919;56.194;95.716;2022-09-24T21:09:27;5.10;;;1.07;;
70457;SDS011;57919;56.194;95.716;2022-09-24T21:19:30;8.57;;;2.60;;
70457;SDS011;57919;56.194;95.716;2022-09-24T21:29:36;4.93;;;1.40;;
70457;SDS011;57919;56.194;95.716;2022-09-24T21:39:39;5.53;;;1.75;;
70457;SDS011;57919;56.194;95.716;2022-09-24T21:49:42;6.83;;;1.27;;
70457;SDS011;57919;56.194;95.716;2022-09-24T21:59:44;5.30;;;1.60;;
70457;SDS011;57919;56.194;95.716;2022-09-24T22:10:15;4.25;;;1.15;;
70457;SDS011;57919;56.194;95.716;2022-09-24T22:20:17;12.30;;;1.57;;
70457;SDS011;57919;56.194;95.716;2022-09-24T22:30:19;14.53;;;5.07;;
70457;SDS011;57919;56.194;95.716;2022-09-24T22:40:21;11.68;;;4.30;;
70457;SDS011;57919;56.194;95.716;2022-09-24T22:50:23;11.53;;;5.07;;
70457;SDS011;57919;56.194;95.716;2022-09-24T23:00:26;9.32;;;3.63;;
70457;SDS011;57919;56.194;95.716;2022-09-24T23:10:28;14.43;;;5.50;;
70457;SDS011;57919;56.194;95.716;2022-09-24T23:20:30;35.87;;;11.70;;
70457;SDS011;57919;56.194;95.716;2022-09-24T23:30:32;19.60;;;7.63;;
70457;SDS011;57919;56.194;95.716;2022-09-24T23:40:34;36.23;;;15.70;;
70457;SDS011;57919;56.194;95.716;2022-09-24T23:50:36;26.30;;;12.67;;
